sensor_id;sensor_type;location;lat;lon;timestamp;temperature;humidity
20384;DHT22;46458;50.966;7.002;2023-04-03T00:00:16;4.80;99.90
20384;DHT22;46458;50.966;7.002;2023-04-03T00:02:48;4.80;99.90
20384;DHT22;46458;50.966;7.002;2023-04-03T00:05:17;4.80;99.90
20384;DHT22;46458;50.966;7.002;2023-04-03T00:07:46;4.80;99.90
20384;DHT22;46458;50.966;7.002;2023-04-03T00:10:15;4.80;99.90
20384;DHT22;46458;50.966;7.002;2023-04-03T00:12:45;4.80;99.90
20384;DHT22;46458;50.966;7.002;2023-04-03T00:15:13;4.70;99.90
20384;DHT22;46458;50.966;7.002;2023-04-03T00:17:48;4.60;99.90
20384;DHT22;46458;50.966;7.002;2023-04-03T00:20:19;4.50;99.90
20384;DHT22;46458;50.966;7.002;2023-04-03T00:22:48;4.50;99.90
20384;DHT22;46458;50.966;7.002;2023-04-03T00:25:17;4.50;99.90
20384;DHT22;46458;50.966;7.002;2023-04-03T00:27:46;4.40;99.90
20384;DHT22;46458;50.966;7.002;2023-04-03T00:30:17;4.30;99.90
20384;DHT22;46458;50.966;7.002;2023-04-03T00:32:51;4.30;99.90
20384;DHT22;46458;50.966;7.002;2023-04-03T00:35:22;4.30;99.90
20384;DHT22;46458;50.966;7.002;2023-04-03T00:37:53;4.20;99.90
20384;DHT22;46458;50.966;7.002;2023-04-03T00:40:23;4.10;99.90
20384;DHT22;46458;50.966;7.002;2023-04-03T00:42:56;4.10;99.90
20384;DHT22;46458;50.966;7.002;2023-04-03T00:45:29;4.00;99.90
20384;DHT22;46458;50.966;7.002;2023-04-03T00:48:03;4.00;99.90
20384;DHT22;46458;50.966;7.002;2023-04-03T00:50:39;3.90;99.90
20384;DHT22;46458;50.966;7.002;2023-04-03T00:53:12;3.90;99.90
20384;DHT22;46458;50.966;7.002;2023-04-03T00:55:43;3.80;99.90
20384;DHT22;46458;50.966;7.002;2023-04-03T00:58:13;3.80;99.90
20384;DHT22;46458;50.966;7.002;2023-04-03T01:00:46;3.70;99.90
20384;DHT22;46458;50.966;7.002;2023-04-03T01:03:20;3.70;99.90
20384;DHT22;46458;50.966;7.002;2023-04-03T01:05:49;3.70;99.90
20384;DHT22;46458;50.966;7.002;2023-04-03T01:08:18;3.70;99.90
20384;DHT22;46458;50.966;7.002;2023-04-03T01:10:49;3.70;99.90
20384;DHT22;46458;50.966;7.002;2023-04-03T01:13:21;3.60;99.90
20384;DHT22;46458;50.966;7.002;2023-04-03T01:15:54;3.70;99.90
20384;DHT22;46458;50.966;7.002;2023-04-03T01:18:26;3.70;99.90
20384;DHT22;46458;50.966;7.002;2023-04-03T01:24:00;3.70;99.90
20384;DHT22;46458;50.966;7.002;2023-04-03T01:26:33;3.60;99.90
20384;DHT22;46458;50.966;7.002;2023-04-03T01:29:05;3.60;99.90
20384;DHT22;46458;50.966;7.002;2023-04-03T01:31:49;3.60;99.90
20384;DHT22;46458;50.966;7.002;2023-04-03T01:34:19;3.60;99.90
20384;DHT22;46458;50.966;7.002;2023-04-03T01:36:49;3.70;99.90
20384;DHT22;46458;50.966;7.002;2023-04-03T01:39:20;3.70;99.90
20384;DHT22;46458;50.966;7.002;2023-04-03T01:41:51;3.70;99.90
20384;DHT22;46458;50.966;7.002;2023-04-03T01:44:27;3.70;99.90
20384;DHT22;46458;50.966;7.002;2023-04-03T01:46:59;3.70;99.90
20384;DHT22;46458;50.966;7.002;2023-04-03T01:49:31;3.60;99.90
20384;DHT22;46458;50.966;7.002;2023-04-03T01:52:02;3.60;99.90
20384;DHT22;46458;50.966;7.002;2023-04-03T01:54:31;3.60;99.90
20384;DHT22;46458;50.966;7.002;2023-04-03T01:57:00;3.50;99.90
20384;DHT22;46458;50.966;7.002;2023-04-03T01:59:30;3.50;99.90
20384;DHT22;46458;50.966;7.002;2023-04-03T02:02:01;3.50;99.90
20384;DHT22;46458;50.966;7.002;2023-04-03T02:04:30;3.50;99.90
20384;DHT22;46458;50.966;7.002;2023-04-03T02:06:59;3.50;99.90
20384;DHT22;46458;50.966;7.002;2023-04-03T02:09:28;3.10;99.90
20384;DHT22;46458;50.966;7.002;2023-04-03T02:11:57;3.50;99.90
20384;DHT22;46458;50.966;7.002;2023-04-03T02:14:29;3.50;99.90
20384;DHT22;46458;50.966;7.002;2023-04-03T02:16:57;4.40;99.90
20384;DHT22;46458;50.966;7.002;2023-04-03T02:19:29;3.30;99.90
20384;DHT22;46458;50.966;7.002;2023-04-03T02:21:58;3.40;99.90
20384;DHT22;46458;50.966;7.002;2023-04-03T02:24:26;3.30;99.90
20384;DHT22;46458;50.966;7.002;2023-04-03T02:26:56;3.30;99.90
20384;DHT22;46458;50.966;7.002;2023-04-03T02:29:25;3.30;99.90
20384;DHT22;46458;50.966;7.002;2023-04-03T02:31:56;3.30;99.90
20384;DHT22;46458;50.966;7.002;2023-04-03T02:34:25;3.20;99.90
20384;DHT22;46458;50.966;7.002;2023-04-03T02:37:00;3.20;99.90
20384;DHT22;46458;50.966;7.002;2023-04-03T02:39:29;3.20;99.90
20384;DHT22;46458;50.966;7.002;2023-04-03T02:41:59;3.20;99.90
20384;DHT22;46458;50.966;7.002;2023-04-03T02:44:28;3.10;99.90
20384;DHT22;46458;50.966;7.002;2023-04-03T02:46:59;3.20;99.90
20384;DHT22;46458;50.966;7.002;2023-04-03T02:49:28;3.20;99.90
20384;DHT22;46458;50.966;7.002;2023-04-03T02:52:02;3.10;99.90
20384;DHT22;46458;50.966;7.002;2023-04-03T02:54:31;3.10;99.90
20384;DHT22;46458;50.966;7.002;2023-04-03T02:57:03;3.10;99.90
20384;DHT22;46458;50.966;7.002;2023-04-03T02:59:34;3.10;99.90
20384;DHT22;46458;50.966;7.002;2023-04-03T03:02:06;3.10;99.90
20384;DHT22;46458;50.966;7.002;2023-04-03T03:04:36;3.10;99.90
20384;DHT22;46458;50.966;7.002;2023-04-03T03:07:07;3.10;99.90
20384;DHT22;46458;50.966;7.002;2023-04-03T03:09:36;3.10;99.90
20384;DHT22;46458;50.966;7.002;2023-04-03T03:12:05;3.10;99.90
20384;DHT22;46458;50.966;7.002;2023-04-03T03:14:34;3.10;99.90
20384;DHT22;46458;50.966;7.002;2023-04-03T03:17:03;3.10;99.90
20384;DHT22;46458;50.966;7.002;2023-04-03T03:19:35;3.10;99.90
20384;DHT22;46458;50.966;7.002;2023-04-03T03:22:10;3.10;99.90
20384;DHT22;46458;50.966;7.002;2023-04-03T03:24:39;3.10;99.90
20384;DHT22;46458;50.966;7.002;2023-04-03T03:27:11;3.10;99.90
20384;DHT22;46458;50.966;7.002;2023-04-03T03:29:42;3.10;99.90
20384;DHT22;46458;50.966;7.002;2023-04-03T03:32:16;3.10;99.90
20384;DHT22;46458;50.966;7.002;2023-04-03T03:34:45;3.10;99.90
20384;DHT22;46458;50.966;7.002;2023-04-03T03:37:16;3.00;99.90
20384;DHT22;46458;50.966;7.002;2023-04-03T03:39:45;3.10;99.90
20384;DHT22;46458;50.966;7.002;2023-04-03T03:42:14;3.10;99.90
20384;DHT22;46458;50.966;7.002;2023-04-03T03:44:46;3.10;99.90
20384;DHT22;46458;50.966;7.002;2023-04-03T03:47:14;3.10;99.90
20384;DHT22;46458;50.966;7.002;2023-04-03T03:49:43;3.00;99.90
20384;DHT22;46458;50.966;7.002;2023-04-03T03:52:15;3.00;99.90
20384;DHT22;46458;50.966;7.002;2023-04-03T03:54:44;3.10;99.90
20384;DHT22;46458;50.966;7.002;2023-04-03T03:57:15;3.10;99.90
20384;DHT22;46458;50.966;7.002;2023-04-03T03:59:44;3.10;99.90
20384;DHT22;46458;50.966;7.002;2023-04-03T04:02:16;3.10;99.90
20384;DHT22;46458;50.966;7.002;2023-04-03T04:04:53;3.20;99.90
20384;DHT22;46458;50.966;7.002;2023-04-03T04:07:25;3.20;99.90
20384;DHT22;46458;50.966;7.002;2023-04-03T04:09:55;3.20;99.90
20384;DHT22;46458;50.966;7.002;2023-04-03T04:12:27;3.20;99.90
20384;DHT22;46458;50.966;7.002;2023-04-03T04:14:56;3.20;99.90
20384;DHT22;46458;50.966;7.002;2023-04-03T04:17:25;3.30;99.90
20384;DHT22;46458;50.966;7.002;2023-04-03T04:19:55;3.30;99.90
20384;DHT22;46458;50.966;7.002;2023-04-03T04:22:26;3.30;99.90
20384;DHT22;46458;50.966;7.002;2023-04-03T04:24:55;3.30;99.90
20384;DHT22;46458;50.966;7.002;2023-04-03T04:27:24;3.20;99.90
20384;DHT22;46458;50.966;7.002;2023-04-03T04:29:54;3.20;99.90
20384;DHT22;46458;50.966;7.002;2023-04-03T04:32:23;3.20;99.90
20384;DHT22;46458;50.966;7.002;2023-04-03T04:34:52;3.30;99.90
20384;DHT22;46458;50.966;7.002;2023-04-03T04:37:21;3.30;99.90
20384;DHT22;46458;50.966;7.002;2023-04-03T04:39:55;3.30;99.90
20384;DHT22;46458;50.966;7.002;2023-04-03T04:42:24;3.40;99.90
20384;DHT22;46458;50.966;7.002;2023-04-03T04:44:53;3.40;99.90
20384;DHT22;46458;50.966;7.002;2023-04-03T04:47:23;3.30;99.90
20384;DHT22;46458;50.966;7.002;2023-04-03T04:49:52;3.30;99.90
20384;DHT22;46458;50.966;7.002;2023-04-03T04:52:21;3.30;99.90
20384;DHT22;46458;50.966;7.002;2023-04-03T04:54:52;3.30;99.90
20384;DHT22;46458;50.966;7.002;2023-04-03T04:57:21;3.40;99.90
20384;DHT22;46458;50.966;7.002;2023-04-03T04:59:50;3.40;99.90
20384;DHT22;46458;50.966;7.002;2023-04-03T05:02:20;3.40;99.90
20384;DHT22;46458;50.966;7.002;2023-04-03T05:04:49;3.30;99.90
20384;DHT22;46458;50.966;7.002;2023-04-03T05:07:22;3.20;99.90
20384;DHT22;46458;50.966;7.002;2023-04-03T05:09:54;3.20;99.90
20384;DHT22;46458;50.966;7.002;2023-04-03T05:12:23;3.20;99.90
20384;DHT22;46458;50.966;7.002;2023-04-03T05:14:57;3.20;99.90
20384;DHT22;46458;50.966;7.002;2023-04-03T05:17:31;3.10;99.90
20384;DHT22;46458;50.966;7.002;2023-04-03T05:20:00;3.10;99.90
20384;DHT22;46458;50.966;7.002;2023-04-03T05:22:30;3.10;99.90
20384;DHT22;46458;50.966;7.002;2023-04-03T05:25:08;3.10;99.90
20384;DHT22;46458;50.966;7.002;2023-04-03T05:27:39;3.10;99.90
20384;DHT22;46458;50.966;7.002;2023-04-03T05:30:10;3.10;99.90
20384;DHT22;46458;50.966;7.002;2023-04-03T05:32:40;3.10;99.90
20384;DHT22;46458;50.966;7.002;2023-04-03T05:35:16;3.10;99.90
20384;DHT22;46458;50.966;7.002;2023-04-03T05:37:50;3.10;99.90
20384;DHT22;46458;50.966;7.002;2023-04-03T05:40:23;3.10;99.90
20384;DHT22;46458;50.966;7.002;2023-04-03T05:42:54;3.00;99.90
20384;DHT22;46458;50.966;7.002;2023-04-03T05:45:25;3.00;99.90
20384;DHT22;46458;50.966;7.002;2023-04-03T05:47:54;3.10;99.90
20384;DHT22;46458;50.966;7.002;2023-04-03T05:50:23;3.10;99.90
20384;DHT22;46458;50.966;7.002;2023-04-03T05:52:56;3.00;99.90
20384;DHT22;46458;50.966;7.002;2023-04-03T05:55:30;3.10;99.90
20384;DHT22;46458;50.966;7.002;2023-04-03T05:57:59;3.10;99.90
20384;DHT22;46458;50.966;7.002;2023-04-03T06:00:28;3.10;99.90
20384;DHT22;46458;50.966;7.002;2023-04-03T06:03:01;3.10;99.90
20384;DHT22;46458;50.966;7.002;2023-04-03T06:05:33;3.20;99.90
20384;DHT22;46458;50.966;7.002;2023-04-03T06:08:02;3.20;99.90
20384;DHT22;46458;50.966;7.002;2023-04-03T06:10:35;3.20;99.90
20384;DHT22;46458;50.966;7.002;2023-04-03T06:13:05;3.20;99.90
20384;DHT22;46458;50.966;7.002;2023-04-03T06:15:34;3.30;99.90
20384;DHT22;46458;50.966;7.002;2023-04-03T06:18:07;3.40;99.90
20384;DHT22;46458;50.966;7.002;2023-04-03T06:20:35;3.40;99.90
20384;DHT22;46458;50.966;7.002;2023-04-03T06:23:04;3.50;99.90
20384;DHT22;46458;50.966;7.002;2023-04-03T06:25:36;3.50;99.90
20384;DHT22;46458;50.966;7.002;2023-04-03T06:28:05;3.60;99.90
20384;DHT22;46458;50.966;7.002;2023-04-03T06:30:36;3.70;99.90
20384;DHT22;46458;50.966;7.002;2023-04-03T06:33:05;3.70;99.90
20384;DHT22;46458;50.966;7.002;2023-04-03T06:35:33;3.80;99.90
20384;DHT22;46458;50.966;7.002;2023-04-03T06:38:04;3.80;99.90
20384;DHT22;46458;50.966;7.002;2023-04-03T06:40:37;3.90;99.90
20384;DHT22;46458;50.966;7.002;2023-04-03T06:43:06;3.90;99.90
20384;DHT22;46458;50.966;7.002;2023-04-03T06:45:35;4.00;99.90
20384;DHT22;46458;50.966;7.002;2023-04-03T06:48:06;4.00;99.90
20384;DHT22;46458;50.966;7.002;2023-04-03T06:50:40;4.10;99.90
20384;DHT22;46458;50.966;7.002;2023-04-03T06:53:11;4.20;99.90
20384;DHT22;46458;50.966;7.002;2023-04-03T06:55:43;4.30;99.90
20384;DHT22;46458;50.966;7.002;2023-04-03T06:58:12;4.30;99.90
20384;DHT22;46458;50.966;7.002;2023-04-03T07:00:43;4.40;99.90
20384;DHT22;46458;50.966;7.002;2023-04-03T07:03:13;4.60;99.90
20384;DHT22;46458;50.966;7.002;2023-04-03T07:05:42;4.70;99.90
20384;DHT22;46458;50.966;7.002;2023-04-03T07:08:13;4.80;99.90
20384;DHT22;46458;50.966;7.002;2023-04-03T07:10:45;5.00;99.90
20384;DHT22;46458;50.966;7.002;2023-04-03T07:13:13;5.10;99.90
20384;DHT22;46458;50.966;7.002;2023-04-03T07:15:42;5.00;99.90
20384;DHT22;46458;50.966;7.002;2023-04-03T07:18:11;5.20;99.90
20384;DHT22;46458;50.966;7.002;2023-04-03T07:20:40;5.20;99.90
20384;DHT22;46458;50.966;7.002;2023-04-03T07:23:09;5.30;99.90
20384;DHT22;46458;50.966;7.002;2023-04-03T07:25:45;5.40;99.90
20384;DHT22;46458;50.966;7.002;2023-04-03T07:28:15;5.60;99.90
20384;DHT22;46458;50.966;7.002;2023-04-03T07:30:44;5.70;99.90
20384;DHT22;46458;50.966;7.002;2023-04-03T07:33:14;5.80;99.90
20384;DHT22;46458;50.966;7.002;2023-04-03T07:35:44;6.00;99.90
20384;DHT22;46458;50.966;7.002;2023-04-03T07:38:13;6.10;99.90
20384;DHT22;46458;50.966;7.002;2023-04-03T07:40:49;6.20;99.90
20384;DHT22;46458;50.966;7.002;2023-04-03T07:43:19;6.30;99.90
20384;DHT22;46458;50.966;7.002;2023-04-03T07:45:50;6.50;99.90
20384;DHT22;46458;50.966;7.002;2023-04-03T07:48:20;6.60;99.90
20384;DHT22;46458;50.966;7.002;2023-04-03T07:50:50;6.70;99.90
20384;DHT22;46458;50.966;7.002;2023-04-03T07:53:21;6.80;99.90
20384;DHT22;46458;50.966;7.002;2023-04-03T07:55:53;6.90;99.90
20384;DHT22;46458;50.966;7.002;2023-04-03T07:58:22;7.20;99.90
20384;DHT22;46458;50.966;7.002;2023-04-03T08:00:51;7.30;99.90
20384;DHT22;46458;50.966;7.002;2023-04-03T08:03:20;7.20;99.90
20384;DHT22;46458;50.966;7.002;2023-04-03T08:05:49;7.30;99.90
20384;DHT22;46458;50.966;7.002;2023-04-03T08:08:20;7.40;99.90
20384;DHT22;46458;50.966;7.002;2023-04-03T08:10:53;7.50;99.90
20384;DHT22;46458;50.966;7.002;2023-04-03T08:13:22;7.60;99.90
20384;DHT22;46458;50.966;7.002;2023-04-03T08:15:52;7.70;99.90
20384;DHT22;46458;50.966;7.002;2023-04-03T08:18:25;7.90;99.90
20384;DHT22;46458;50.966;7.002;2023-04-03T08:20:54;7.90;99.90
20384;DHT22;46458;50.966;7.002;2023-04-03T08:23:23;8.30;99.90
20384;DHT22;46458;50.966;7.002;2023-04-03T08:25:54;8.30;99.90
20384;DHT22;46458;50.966;7.002;2023-04-03T08:28:23;8.50;99.90
20384;DHT22;46458;50.966;7.002;2023-04-03T08:30:52;8.70;99.90
20384;DHT22;46458;50.966;7.002;2023-04-03T08:33:21;8.90;99.90
20384;DHT22;46458;50.966;7.002;2023-04-03T08:35:50;9.40;99.90
20384;DHT22;46458;50.966;7.002;2023-04-03T08:38:19;9.50;99.90
20384;DHT22;46458;50.966;7.002;2023-04-03T08:41:14;9.50;99.90
20384;DHT22;46458;50.966;7.002;2023-04-03T08:44:02;9.50;99.90
20384;DHT22;46458;50.966;7.002;2023-04-03T08:46:43;9.50;99.90
20384;DHT22;46458;50.966;7.002;2023-04-03T08:49:22;9.70;99.90
20384;DHT22;46458;50.966;7.002;2023-04-03T08:51:57;9.90;99.90
20384;DHT22;46458;50.966;7.002;2023-04-03T08:54:30;10.10;99.90
20384;DHT22;46458;50.966;7.002;2023-04-03T08:57:05;10.40;99.90
20384;DHT22;46458;50.966;7.002;2023-04-03T08:59:36;10.60;99.90
20384;DHT22;46458;50.966;7.002;2023-04-03T09:02:23;10.70;99.90
20384;DHT22;46458;50.966;7.002;2023-04-03T09:04:53;10.90;99.90
20384;DHT22;46458;50.966;7.002;2023-04-03T09:07:30;11.10;99.90
20384;DHT22;46458;50.966;7.002;2023-04-03T09:10:02;11.20;99.90
20384;DHT22;46458;50.966;7.002;2023-04-03T09:12:39;11.30;99.90
20384;DHT22;46458;50.966;7.002;2023-04-03T09:15:16;11.50;99.90
20384;DHT22;46458;50.966;7.002;2023-04-03T09:17:59;11.40;99.90
20384;DHT22;46458;50.966;7.002;2023-04-03T09:20:39;11.60;99.90
20384;DHT22;46458;50.966;7.002;2023-04-03T09:23:17;11.80;99.90
20384;DHT22;46458;50.966;7.002;2023-04-03T09:25:47;12.00;99.90
20384;DHT22;46458;50.966;7.002;2023-04-03T09:28:19;12.40;99.90
20384;DHT22;46458;50.966;7.002;2023-04-03T09:30:48;12.60;99.90
20384;DHT22;46458;50.966;7.002;2023-04-03T09:33:22;12.70;99.90
20384;DHT22;46458;50.966;7.002;2023-04-03T09:35:51;12.90;99.90
20384;DHT22;46458;50.966;7.002;2023-04-03T09:38:24;13.00;99.90
20384;DHT22;46458;50.966;7.002;2023-04-03T09:41:04;13.20;99.90
20384;DHT22;46458;50.966;7.002;2023-04-03T09:43:37;13.30;99.90
20384;DHT22;46458;50.966;7.002;2023-04-03T09:46:28;13.30;99.90
20384;DHT22;46458;50.966;7.002;2023-04-03T09:48:59;13.50;99.80
20384;DHT22;46458;50.966;7.002;2023-04-03T09:51:28;13.70;97.40
20384;DHT22;46458;50.966;7.002;2023-04-03T09:53:58;14.00;97.90
20384;DHT22;46458;50.966;7.002;2023-04-03T09:56:29;14.20;95.40
20384;DHT22;46458;50.966;7.002;2023-04-03T09:59:13;14.10;93.30
20384;DHT22;46458;50.966;7.002;2023-04-03T10:01:57;14.30;95.10
20384;DHT22;46458;50.966;7.002;2023-04-03T10:04:38;14.60;92.50
20384;DHT22;46458;50.966;7.002;2023-04-03T10:07:29;14.80;91.00
20384;DHT22;46458;50.966;7.002;2023-04-03T10:10:00;14.60;90.60
20384;DHT22;46458;50.966;7.002;2023-04-03T10:12:30;14.60;90.80
20384;DHT22;46458;50.966;7.002;2023-04-03T10:15:01;14.80;90.50
20384;DHT22;46458;50.966;7.002;2023-04-03T10:17:40;14.80;88.00
20384;DHT22;46458;50.966;7.002;2023-04-03T10:20:26;14.80;88.10
20384;DHT22;46458;50.966;7.002;2023-04-03T10:23:07;15.00;86.80
20384;DHT22;46458;50.966;7.002;2023-04-03T10:25:54;15.10;86.30
20384;DHT22;46458;50.966;7.002;2023-04-03T10:28:30;15.40;85.30
20384;DHT22;46458;50.966;7.002;2023-04-03T10:31:13;15.10;83.50
20384;DHT22;46458;50.966;7.002;2023-04-03T10:33:53;15.30;82.70
20384;DHT22;46458;50.966;7.002;2023-04-03T10:36:34;15.60;85.20
20384;DHT22;46458;50.966;7.002;2023-04-03T10:39:12;15.70;80.40
20384;DHT22;46458;50.966;7.002;2023-04-03T10:41:53;15.60;81.90
20384;DHT22;46458;50.966;7.002;2023-04-03T10:44:31;16.00;82.00
20384;DHT22;46458;50.966;7.002;2023-04-03T10:47:13;16.10;80.20
20384;DHT22;46458;50.966;7.002;2023-04-03T10:49:53;16.00;81.50
20384;DHT22;46458;50.966;7.002;2023-04-03T10:52:26;16.20;79.80
20384;DHT22;46458;50.966;7.002;2023-04-03T10:55:02;16.40;79.50
20384;DHT22;46458;50.966;7.002;2023-04-03T10:57:36;16.40;78.20
20384;DHT22;46458;50.966;7.002;2023-04-03T11:00:13;16.20;79.50
20384;DHT22;46458;50.966;7.002;2023-04-03T11:02:50;16.00;79.40
20384;DHT22;46458;50.966;7.002;2023-04-03T11:05:28;16.20;81.20
20384;DHT22;46458;50.966;7.002;2023-04-03T11:08:08;16.30;80.90
20384;DHT22;46458;50.966;7.002;2023-04-03T11:10:42;16.20;77.00
20384;DHT22;46458;50.966;7.002;2023-04-03T11:13:16;15.80;77.10
20384;DHT22;46458;50.966;7.002;2023-04-03T11:15:46;15.80;80.20
20384;DHT22;46458;50.966;7.002;2023-04-03T11:18:20;15.40;77.00
20384;DHT22;46458;50.966;7.002;2023-04-03T11:20:57;15.10;80.30
20384;DHT22;46458;50.966;7.002;2023-04-03T11:23:32;15.00;82.90
20384;DHT22;46458;50.966;7.002;2023-04-03T11:26:09;14.20;79.20
20384;DHT22;46458;50.966;7.002;2023-04-03T11:28:38;13.50;78.10
20384;DHT22;46458;50.966;7.002;2023-04-03T11:31:18;13.00;81.10
20384;DHT22;46458;50.966;7.002;2023-04-03T11:34:02;13.00;82.60
20384;DHT22;46458;50.966;7.002;2023-04-03T11:36:39;12.90;82.00
20384;DHT22;46458;50.966;7.002;2023-04-03T11:39:18;12.90;83.50
20384;DHT22;46458;50.966;7.002;2023-04-03T11:41:49;12.70;83.90
20384;DHT22;46458;50.966;7.002;2023-04-03T11:44:32;12.80;87.60
20384;DHT22;46458;50.966;7.002;2023-04-03T11:47:05;12.90;86.60
20384;DHT22;46458;50.966;7.002;2023-04-03T11:50:07;13.10;87.30
20384;DHT22;46458;50.966;7.002;2023-04-03T11:53:33;13.30;86.30
20384;DHT22;46458;50.966;7.002;2023-04-03T11:56:27;13.60;86.20
20384;DHT22;46458;50.966;7.002;2023-04-03T11:59:15;13.90;83.50
20384;DHT22;46458;50.966;7.002;2023-04-03T12:01:46;14.00;82.50
20384;DHT22;46458;50.966;7.002;2023-04-03T12:04:18;14.10;82.40
20384;DHT22;46458;50.966;7.002;2023-04-03T12:10:16;14.40;82.20
20384;DHT22;46458;50.966;7.002;2023-04-03T12:13:00;14.60;82.00
20384;DHT22;46458;50.966;7.002;2023-04-03T12:15:49;14.60;82.10
20384;DHT22;46458;50.966;7.002;2023-04-03T12:18:59;14.60;81.20
20384;DHT22;46458;50.966;7.002;2023-04-03T12:24:33;14.60;80.60
20384;DHT22;46458;50.966;7.002;2023-04-03T12:27:09;14.70;80.30
20384;DHT22;46458;50.966;7.002;2023-04-03T12:29:42;14.80;81.50
20384;DHT22;46458;50.966;7.002;2023-04-03T12:32:21;14.80;81.70
20384;DHT22;46458;50.966;7.002;2023-04-03T12:35:05;14.90;80.10
20384;DHT22;46458;50.966;7.002;2023-04-03T12:37:48;15.00;81.50
20384;DHT22;46458;50.966;7.002;2023-04-03T12:40:26;15.30;82.00
20384;DHT22;46458;50.966;7.002;2023-04-03T12:43:11;15.50;79.30
20384;DHT22;46458;50.966;7.002;2023-04-03T12:45:48;15.60;77.60
20384;DHT22;46458;50.966;7.002;2023-04-03T12:48:25;15.60;78.00
20384;DHT22;46458;50.966;7.002;2023-04-03T12:50:55;15.60;76.50
20384;DHT22;46458;50.966;7.002;2023-04-03T12:53:26;15.60;77.60
20384;DHT22;46458;50.966;7.002;2023-04-03T12:56:19;15.70;74.20
20384;DHT22;46458;50.966;7.002;2023-04-03T12:58:50;15.90;72.50
20384;DHT22;46458;50.966;7.002;2023-04-03T13:01:24;16.00;74.40
20384;DHT22;46458;50.966;7.002;2023-04-03T13:03:54;16.00;74.00
20384;DHT22;46458;50.966;7.002;2023-04-03T13:06:27;16.00;75.00
20384;DHT22;46458;50.966;7.002;2023-04-03T13:08:58;16.10;75.80
20384;DHT22;46458;50.966;7.002;2023-04-03T13:11:32;16.10;72.60
20384;DHT22;46458;50.966;7.002;2023-04-03T13:14:15;16.00;73.60
20384;DHT22;46458;50.966;7.002;2023-04-03T13:16:54;15.80;74.90
20384;DHT22;46458;50.966;7.002;2023-04-03T13:19:24;15.80;73.30
20384;DHT22;46458;50.966;7.002;2023-04-03T13:21:58;15.70;74.70
20384;DHT22;46458;50.966;7.002;2023-04-03T13:24:29;15.70;74.00
20384;DHT22;46458;50.966;7.002;2023-04-03T13:27:02;15.60;74.80
20384;DHT22;46458;50.966;7.002;2023-04-03T13:29:33;15.50;75.50
20384;DHT22;46458;50.966;7.002;2023-04-03T13:32:04;15.50;76.20
20384;DHT22;46458;50.966;7.002;2023-04-03T13:34:37;15.30;75.10
20384;DHT22;46458;50.966;7.002;2023-04-03T13:37:19;15.20;74.70
20384;DHT22;46458;50.966;7.002;2023-04-03T13:39:58;15.20;77.60
20384;DHT22;46458;50.966;7.002;2023-04-03T13:42:31;15.20;76.80
20384;DHT22;46458;50.966;7.002;2023-04-03T13:45:24;15.20;76.70
20384;DHT22;46458;50.966;7.002;2023-04-03T13:48:08;15.20;76.10
20384;DHT22;46458;50.966;7.002;2023-04-03T13:50:55;15.10;77.40
20384;DHT22;46458;50.966;7.002;2023-04-03T13:53:26;15.10;77.80
20384;DHT22;46458;50.966;7.002;2023-04-03T13:56:05;15.10;78.50
20384;DHT22;46458;50.966;7.002;2023-04-03T13:58:37;15.20;77.60
20384;DHT22;46458;50.966;7.002;2023-04-03T14:01:17;15.30;76.90
20384;DHT22;46458;50.966;7.002;2023-04-03T14:03:51;15.40;77.90
20384;DHT22;46458;50.966;7.002;2023-04-03T14:06:20;15.70;76.80
20384;DHT22;46458;50.966;7.002;2023-04-03T14:08:49;16.00;76.60
20384;DHT22;46458;50.966;7.002;2023-04-03T14:11:20;16.20;79.80
20384;DHT22;46458;50.966;7.002;2023-04-03T14:13:53;16.60;76.60
20384;DHT22;46458;50.966;7.002;2023-04-03T14:16:26;16.90;78.30
20384;DHT22;46458;50.966;7.002;2023-04-03T14:18:55;16.70;75.40
20384;DHT22;46458;50.966;7.002;2023-04-03T14:21:24;16.70;77.30
20384;DHT22;46458;50.966;7.002;2023-04-03T14:23:53;16.90;75.80
20384;DHT22;46458;50.966;7.002;2023-04-03T14:26:23;16.90;77.20
20384;DHT22;46458;50.966;7.002;2023-04-03T14:28:55;16.90;77.20
20384;DHT22;46458;50.966;7.002;2023-04-03T14:31:24;16.90;77.40
20384;DHT22;46458;50.966;7.002;2023-04-03T14:33:53;17.00;77.40
20384;DHT22;46458;50.966;7.002;2023-04-03T14:36:24;17.10;77.40
20384;DHT22;46458;50.966;7.002;2023-04-03T14:38:54;17.40;75.20
20384;DHT22;46458;50.966;7.002;2023-04-03T14:41:25;17.50;74.30
20384;DHT22;46458;50.966;7.002;2023-04-03T14:43:56;17.60;74.70
20384;DHT22;46458;50.966;7.002;2023-04-03T14:46:28;17.70;74.00
20384;DHT22;46458;50.966;7.002;2023-04-03T14:48:58;17.80;74.90
20384;DHT22;46458;50.966;7.002;2023-04-03T14:51:27;17.80;73.30
20384;DHT22;46458;50.966;7.002;2023-04-03T14:53:57;17.80;70.80
20384;DHT22;46458;50.966;7.002;2023-04-03T14:56:28;17.80;71.80
20384;DHT22;46458;50.966;7.002;2023-04-03T14:59:01;18.10;71.80
20384;DHT22;46458;50.966;7.002;2023-04-03T15:01:30;18.50;72.00
20384;DHT22;46458;50.966;7.002;2023-04-03T15:03:59;18.80;71.10
20384;DHT22;46458;50.966;7.002;2023-04-03T15:06:35;19.00;68.90
20384;DHT22;46458;50.966;7.002;2023-04-03T15:09:04;19.20;71.10
20384;DHT22;46458;50.966;7.002;2023-04-03T15:11:33;19.80;69.00
20384;DHT22;46458;50.966;7.002;2023-04-03T15:14:04;20.20;68.00
20384;DHT22;46458;50.966;7.002;2023-04-03T15:16:36;20.80;68.70
20384;DHT22;46458;50.966;7.002;2023-04-03T15:19:05;21.20;68.00
20384;DHT22;46458;50.966;7.002;2023-04-03T15:21:34;21.40;68.20
20384;DHT22;46458;50.966;7.002;2023-04-03T15:24:06;21.80;67.10
20384;DHT22;46458;50.966;7.002;2023-04-03T15:26:34;21.90;66.30
20384;DHT22;46458;50.966;7.002;2023-04-03T15:29:06;22.30;66.40
20384;DHT22;46458;50.966;7.002;2023-04-03T15:31:35;22.80;66.40
20384;DHT22;46458;50.966;7.002;2023-04-03T15:34:03;23.50;61.60
20384;DHT22;46458;50.966;7.002;2023-04-03T15:36:32;23.30;61.40
20384;DHT22;46458;50.966;7.002;2023-04-03T15:39:01;23.00;61.60
20384;DHT22;46458;50.966;7.002;2023-04-03T15:41:30;22.70;60.70
20384;DHT22;46458;50.966;7.002;2023-04-03T15:43:59;22.70;60.10
20384;DHT22;46458;50.966;7.002;2023-04-03T15:46:32;22.80;60.40
20384;DHT22;46458;50.966;7.002;2023-04-03T15:49:01;23.10;59.20
20384;DHT22;46458;50.966;7.002;2023-04-03T15:51:38;23.40;60.60
20384;DHT22;46458;50.966;7.002;2023-04-03T15:54:07;23.50;59.80
20384;DHT22;46458;50.966;7.002;2023-04-03T15:56:36;23.70;60.30
20384;DHT22;46458;50.966;7.002;2023-04-03T15:59:08;24.00;60.60
20384;DHT22;46458;50.966;7.002;2023-04-03T16:01:39;23.80;60.00
20384;DHT22;46458;50.966;7.002;2023-04-03T16:04:09;23.40;60.30
20384;DHT22;46458;50.966;7.002;2023-04-03T16:06:38;23.30;60.10
20384;DHT22;46458;50.966;7.002;2023-04-03T16:09:07;23.00;60.00
20384;DHT22;46458;50.966;7.002;2023-04-03T16:11:36;22.90;62.20
20384;DHT22;46458;50.966;7.002;2023-04-03T16:14:06;22.70;60.00
20384;DHT22;46458;50.966;7.002;2023-04-03T16:16:35;22.30;59.20
20384;DHT22;46458;50.966;7.002;2023-04-03T16:19:07;22.00;59.80
20384;DHT22;46458;50.966;7.002;2023-04-03T16:21:37;21.40;60.50
20384;DHT22;46458;50.966;7.002;2023-04-03T16:24:06;21.10;61.60